PKMJ

Marshall Islands International Airport

Majuro Atoll, , Marshall Islands
PKMJ 201729Z 2018/2118 20011KT P6SM -RA SCT014 BKN050 OVC100 TEMPO 2018/2022 5SM SHRA SCT012 BKN025 FM202200 20010KT P6SM VCSH FEW018 SCT050 BKN120
Issued Valid From Valid To
Apr-20 @ 17:29 UTC
(an hour ago)
Apr-20 @ 18:00 UTC
(38 minutes ago)
Apr-21 @ 18:00 UTC
(in 23 hours)
Apr-20 @ 18:00 to Apr-20 @ 22:00
PKMJ 201729Z 2018/2118 20011KT P6SM -RA SCT014 BKN050 OVC100
Wind Visibility Clouds Conditions
200° at 11 knots 10,000+ meters
  • Scattered at 1,400' AGL
  • Broken at 5,000' AGL
  • Overcast at 10,000' AGL
  • Light Rain
Temporary Apr-20 @ 18:00 to Apr-20 @ 22:00
TEMPO 2018/2022 5SM SHRA SCT012 BKN025
Visibility Clouds Conditions
8,047 meters
  • Scattered at 1,200' AGL
  • Broken at 2,500' AGL
  • Rain
From Apr-20 @ 22:00 to Apr-21 @ 18:00
FM202200 20010KT P6SM VCSH FEW018 SCT050 BKN120
Wind Visibility Clouds
200° at 10 knots 10,000+ meters
  • Few at 1,800' AGL
  • Scattered at 5,000' AGL
  • Broken at 12,000' AGL
PKMJ 201729Z 2018/2118 20011KT P6SM -RA SCT014 BKN050 OVC100 TEMPO 2018/2022 5SM SHRA SCT012 BKN025 FM202200 20010KT P6SM VCSH FEW018 SCT050 BKN120
Issued Apr-20 @ 17:29 UTC
(an hour ago)
Valid From Apr-20 @ 18:00 UTC
(38 minutes ago)
Valid To Apr-21 @ 18:00 UTC
(in 23 hours)
Apr-20 @ 18:00 - Apr-20 @ 22:00
Wind Visibility
200° at 11 knots 10,000+ meters
Clouds
  • Scattered at 1,400' AGL
  • Broken at 5,000' AGL
  • Overcast at 10,000' AGL
Conditions
  • Light Rain
Temporary Apr-20 @ 18:00 - Apr-20 @ 22:00
Clouds
  • Scattered at 1,200' AGL
  • Broken at 2,500' AGL
Conditions
  • Rain
From Apr-20 @ 22:00 - Apr-21 @ 18:00
Wind Visibility
200° at 10 knots 10,000+ meters
Clouds
  • Few at 1,800' AGL
  • Scattered at 5,000' AGL
  • Broken at 12,000' AGL